Time;durP1;ratioP1;P1;durP2;ratioP2;P2;SDS_P1;SDS_P2;PMS_P1;PMS_P2;Temp;Humidity;BMP_temperature;BMP_pressure;BME280_temperature;BME280_humidity;BME280_pressure;Samples;Min_cycle;Max_cycle;Signal;HPM_P1;HPM_P2
2021/01/02 00:01:01;;;;;;;20.90;17.03;;;1.90;47.70;;;;;;5073285;28;20228;-75
2021/01/02 00:03:55;;;;;;;20.77;18.57;;;1.90;47.60;;;;;;5057473;28;20244;-74
2021/01/02 00:06:42;;;;;;;20.35;18.20;;;1.90;47.30;;;;;;5053634;28;20170;-74
2021/01/02 00:09:10;;;;;;;22.83;18.50;;;1.90;47.30;;;;;;5053168;28;20254;-72
2021/01/02 00:11:54;;;;;;;23.23;19.85;;;1.90;47.00;;;;;;5053178;28;20217;-72
2021/01/02 00:14:43;;;;;;;22.88;18.90;;;1.80;46.90;;;;;;5053219;28;20632;-72
2021/01/02 00:17:27;;;;;;;19.67;17.63;;;1.80;47.20;;;;;;5053361;28;20201;-72
2021/01/02 00:20:16;;;;;;;24.48;17.70;;;1.60;47.50;;;;;;5052963;28;20206;-73
2021/01/02 00:22:54;;;;;;;27.27;19.45;;;1.70;47.90;;;;;;5016217;28;20210;-73
2021/01/02 00:25:24;;;;;;;20.55;18.55;;;1.60;47.50;;;;;;5035096;28;20181;-72
2021/01/02 00:28:13;;;;;;;23.80;16.98;;;1.60;47.50;;;;;;5052847;28;20223;-71
2021/01/02 00:30:48;;;;;;;27.25;19.20;;;1.50;47.70;;;;;;5052145;28;20565;-72
2021/01/02 00:33:29;;;;;;;28.45;19.83;;;1.50;48.00;;;;;;5034292;28;20208;-73
2021/01/02 00:36:11;;;;;;;19.48;17.33;;;1.50;47.70;;;;;;5052909;28;20224;-72
2021/01/02 00:38:38;;;;;;;21.65;19.33;;;1.60;47.90;;;;;;5052717;28;20179;-71
2021/01/02 00:41:07;;;;;;;17.95;15.70;;;1.60;47.50;;;;;;5052504;28;20189;-70
2021/01/02 00:43:36;;;;;;;25.40;19.23;;;1.60;47.30;;;;;;5052478;28;20207;-72
2021/01/02 00:46:01;;;;;;;19.88;17.90;;;1.60;46.90;;;;;;5051153;28;20181;-72
2021/01/02 00:48:27;;;;;;;17.73;15.60;;;1.60;46.40;;;;;;5037647;28;20261;-75
2021/01/02 00:50:54;;;;;;;19.43;16.90;;;1.60;46.60;;;;;;5039117;28;20256;-73
2021/01/02 00:53:37;;;;;;;25.17;19.10;;;1.60;46.80;;;;;;5056504;28;20197;-73
2021/01/02 00:56:45;;;;;;;19.70;17.80;;;1.60;46.30;;;;;;5055513;28;20652;-73
2021/01/02 00:59:31;;;;;;;17.70;15.73;;;1.60;46.20;;;;;;5056336;28;20190;-72
2021/01/02 01:02:06;;;;;;;21.50;18.48;;;;;;;;;;5057547;28;20279;-73
2021/01/02 01:04:35;;;;;;;17.92;15.05;;;1.60;44.90;;;;;;5057880;28;20247;-73
2021/01/02 01:07:01;;;;;;;17.55;15.75;;;1.70;45.60;;;;;;5067158;28;20175;-73
2021/01/02 01:09:27;;;;;;;18.85;16.85;;;1.70;45.90;;;;;;5066949;28;20170;-73
2021/01/02 01:11:56;;;;;;;19.00;17.03;;;1.70;45.40;;;;;;5056605;28;20582;-73
2021/01/02 01:14:22;;;;;;;18.00;16.17;;;1.70;45.40;;;;;;5054437;28;20550;-73
2021/01/02 01:16:55;;;;;;;16.95;15.15;;;1.70;45.40;;;;;;5053766;28;20175;-72
2021/01/02 01:19:27;;;;;;;19.05;16.58;;;1.70;45.70;;;;;;5053697;28;20172;-73
2021/01/02 01:21:57;;;;;;;17.08;15.00;;;1.80;45.50;;;;;;5053677;28;20565;-73
2021/01/02 01:24:28;;;;;;;17.58;14.93;;;1.80;45.50;;;;;;5034694;28;20694;-72
2021/01/02 01:27:03;;;;;;;18.50;16.60;;;1.80;45.50;;;;;;5034754;28;20632;-72
2021/01/02 01:29:47;;;;;;;19.02;17.17;;;1.80;45.50;;;;;;5052324;28;20212;-73
2021/01/02 01:32:18;;;;;;;27.63;16.92;;;1.70;45.40;;;;;;5052105;28;20259;-73
2021/01/02 01:34:46;;;;;;;19.00;15.45;;;1.80;45.50;;;;;;5052534;28;20225;-72
2021/01/02 01:37:14;;;;;;;17.30;15.02;;;1.80;45.50;;;;;;5051619;28;20232;-72
2021/01/02 01:39:53;;;;;;;26.20;17.25;;;1.80;45.50;;;;;;5051328;28;20257;-73
2021/01/02 01:42:24;;;;;;;21.92;18.00;;;1.80;45.10;;;;;;5051254;28;20251;-72
2021/01/02 01:45:12;;;;;;;29.48;14.90;;;1.70;45.00;;;;;;5051301;28;20202;-72
2021/01/02 01:47:40;;;;;;;18.05;13.68;;;1.60;46.00;;;;;;5051477;28;20636;-72
2021/01/02 01:50:15;;;;;;;17.08;15.32;;;1.70;45.40;;;;;;5051144;28;20216;-74
2021/01/02 01:52:51;;;;;;;18.45;16.52;;;1.60;45.30;;;;;;5051225;28;20204;-72
2021/01/02 01:55:35;;;;;;;18.15;16.23;;;1.50;45.30;;;;;;5033396;28;20179;-74
2021/01/02 01:58:11;;;;;;;18.73;16.60;;;1.40;46.10;;;;;;5051194;28;20178;-72
2021/01/02 02:01:04;;;;;;;21.73;17.55;;;1.40;45.90;;;;;;5051103;28;20186;-72
2021/01/02 02:03:36;;;;;;;16.63;15.10;;;1.30;46.20;;;;;;5029670;28;20282;-72
2021/01/02 02:06:16;;;;;;;18.70;16.45;;;1.30;46.70;;;;;;5051041;28;20170;-72
2021/01/02 02:08:56;;;;;;;17.00;14.30;;;1.30;46.70;;;;;;5051042;28;20159;-73
2021/01/02 02:11:33;;;;;;;21.20;17.88;;;1.40;47.00;;;;;;5050680;28;20721;-72
2021/01/02 02:14:30;;;;;;;19.15;17.13;;;1.50;46.70;;;;;;5033000;28;20283;-72
2021/01/02 02:17:03;;;;;;;22.13;16.88;;;1.50;46.40;;;;;;5033014;28;20187;-72
2021/01/02 02:19:53;;;;;;;21.00;18.13;;;1.50;46.30;;;;;;5033104;28;20213;-71
2021/01/02 02:22:21;;;;;;;19.17;15.70;;;1.50;46.20;;;;;;5050994;28;20194;-74
2021/01/02 02:24:50;;;;;;;25.27;19.02;;;1.50;46.40;;;;;;5050915;28;20210;-74
2021/01/02 02:27:26;;;;;;;19.35;17.55;;;1.40;46.50;;;;;;5050801;28;20163;-75
2021/01/02 02:30:06;;;;;;;29.40;19.50;;;1.40;46.90;;;;;;5032864;28;20661;-74
2021/01/02 02:32:35;;;;;;;20.95;18.73;;;1.30;47.20;;;;;;5050903;28;20197;-73
2021/01/02 02:35:04;;;;;;;24.35;18.45;;;1.30;47.40;;;;;;5051091;28;20202;-73
2021/01/02 02:37:30;;;;;;;25.00;20.35;;;1.40;47.50;;;;;;5033255;28;20549;-73
2021/01/02 02:39:55;;;;;;;23.07;19.40;;;1.40;47.30;;;;;;5051433;28;20178;-73
2021/01/02 02:42:22;;;;;;;22.40;20.20;;;1.50;47.30;;;;;;5050920;28;20494;-73
2021/01/02 02:44:50;;;;;;;24.85;19.95;;;1.60;47.20;;;;;;5050794;28;20198;-74
2021/01/02 02:47:18;;;;;;;20.45;18.45;;;1.60;46.40;;;;;;5050996;28;20654;-73
2021/01/02 02:49:48;;;;;;;21.67;18.63;;;1.60;46.10;;;;;;5032580;28;20224;-74
2021/01/02 02:52:26;;;;;;;24.90;18.67;;;1.70;46.00;;;;;;5050637;28;20190;-72
2021/01/02 02:54:52;;;;;;;22.95;17.80;;;1.70;46.10;;;;;;5051395;28;20699;-71
2021/01/02 02:57:19;;;;;;;21.00;16.93;;;1.70;45.80;;;;;;5054438;28;20181;-71
2021/01/02 02:59:45;;;;;;;19.67;15.63;;;1.60;45.60;;;;;;5054122;28;20558;-72
2021/01/02 03:02:13;;;;;;;19.93;17.50;;;1.60;46.10;;;;;;5054082;28;20198;-73
2021/01/02 03:04:38;;;;;;;22.13;17.70;;;1.60;46.20;;;;;;5036334;28;20686;-72
2021/01/02 03:07:05;;;;;;;17.63;15.73;;;1.60;46.10;;;;;;5054309;28;20232;-71
2021/01/02 03:09:34;;;;;;;21.30;18.65;;;1.50;46.30;;;;;;5053908;28;20272;-74
2021/01/02 03:12:01;;;;;;;20.25;17.98;;;1.50;46.80;;;;;;5053952;28;20651;-71
2021/01/02 03:14:27;;;;;;;21.13;18.42;;;1.50;46.60;;;;;;5054120;28;20180;-73
2021/01/02 03:16:57;;;;;;;23.60;19.30;;;1.50;47.00;;;;;;5036126;28;20185;-71
2021/01/02 03:19:32;;;;;;;23.58;20.50;;;1.40;47.00;;;;;;5035923;28;20947;-72
2021/01/02 03:21:59;;;;;;;23.08;18.45;;;1.40;47.40;;;;;;5036111;28;20639;-71
2021/01/02 03:24:25;;;;;;;25.50;18.35;;;1.30;47.60;;;;;;5035888;28;20200;-70
2021/01/02 03:26:50;;;;;;;24.52;19.90;;;1.30;48.10;;;;;;5053872;28;20184;-70
2021/01/02 03:29:16;;;;;;;38.30;21.47;;;1.30;47.70;;;;;;5053835;28;20629;-71
2021/01/02 03:31:42;;;;;;;29.20;19.33;;;1.30;48.00;;;;;;5053849;28;20273;-71
2021/01/02 03:34:07;;;;;;;24.57;17.77;;;1.30;48.90;;;;;;5053783;28;20662;-71
2021/01/02 03:36:33;;;;;;;28.07;21.07;;;1.30;48.70;;;;;;5053730;28;20186;-72
2021/01/02 03:39:00;;;;;;;25.98;21.15;;;1.30;48.60;;;;;;5053471;28;20188;-73
2021/01/02 03:41:27;;;;;;;23.40;20.38;;;1.30;49.10;;;;;;5053684;28;20182;-72
2021/01/02 03:43:53;;;;;;;20.23;17.92;;;1.30;48.10;;;;;;5053655;28;20205;-71
2021/01/02 03:46:25;;;;;;;22.70;18.47;;;1.30;48.30;;;;;;5053597;28;20241;-71
2021/01/02 03:48:50;;;;;;;28.00;20.30;;;1.40;48.20;;;;;;5053409;28;20180;-70
2021/01/02 03:51:21;;;;;;;24.60;19.13;;;1.30;47.90;;;;;;5053357;28;20176;-71
2021/01/02 03:53:47;;;;;;;22.33;19.92;;;1.30;48.20;;;;;;5035449;28;20549;-71
2021/01/02 03:56:12;;;;;;;29.00;19.40;;;1.30;48.10;;;;;;5053393;28;20189;-71
2021/01/02 03:58:38;;;;;;;23.63;20.60;;;1.30;48.10;;;;;;5053192;28;20238;-71
2021/01/02 04:01:03;;;;;;;28.20;21.03;;;1.20;48.10;;;;;;5053023;28;20185;-73
2021/01/02 04:03:29;;;;;;;22.53;18.07;;;1.30;48.60;;;;;;5052954;28;20221;-71
2021/01/02 04:05:54;;;;;;;27.27;22.17;;;1.30;48.30;;;;;;5052885;28;20174;-71
2021/01/02 04:08:20;;;;;;;23.60;21.07;;;1.30;48.20;;;;;;5053549;28;20260;-71
2021/01/02 04:10:45;;;;;;;19.00;16.97;;;1.30;48.30;;;;;;5052937;28;20177;-72
2021/01/02 04:13:11;;;;;;;28.97;20.83;;;1.30;48.40;;;;;;5053059;28;20300;-72
2021/01/02 04:15:37;;;;;;;27.73;21.80;;;;;;;;;;5053002;28;20647;-71
2021/01/02 04:18:03;;;;;;;22.73;20.43;;;1.40;47.90;;;;;;5052809;28;20599;-71
2021/01/02 04:20:28;;;;;;;26.13;19.90;;;1.40;48.30;;;;;;5052557;28;20419;-71
2021/01/02 04:22:54;;;;;;;24.10;21.60;;;1.40;48.20;;;;;;5052719;28;20202;-72
2021/01/02 04:25:19;;;;;;;24.23;21.40;;;1.40;48.10;;;;;;5034970;28;20193;-71
2021/01/02 04:27:45;;;;;;;29.00;22.43;;;1.30;47.40;;;;;;5052791;28;20178;-70
2021/01/02 04:30:11;;;;;;;21.17;18.90;;;1.40;48.10;;;;;;5034613;28;20213;-71
2021/01/02 04:32:36;;;;;;;25.10;22.07;;;1.40;48.00;;;;;;5052639;28;20253;-74
2021/01/02 04:35:03;;;;;;;25.87;20.50;;;1.30;47.80;;;;;;5052589;28;20965;-70
2021/01/02 04:37:29;;;;;;;21.92;19.25;;;1.30;48.10;;;;;;5052311;28;20664;-71
2021/01/02 04:39:55;;;;;;;26.23;21.90;;;1.30;48.20;;;;;;5052294;28;20188;-71
2021/01/02 04:42:24;;;;;;;21.27;19.08;;;1.30;48.30;;;;;;5052692;28;20440;-70
2021/01/02 04:44:52;;;;;;;26.77;24.00;;;1.40;48.20;;;;;;5053716;28;20293;-71
2021/01/02 04:47:22;;;;;;;23.77;20.10;;;1.40;47.80;;;;;;5052373;28;20189;-71
2021/01/02 04:49:48;;;;;;;25.73;19.75;;;1.30;47.80;;;;;;5052023;28;20193;-72
2021/01/02 04:52:16;;;;;;;24.83;21.83;;;1.20;48.00;;;;;;5052202;28;20196;-71
2021/01/02 04:54:48;;;;;;;28.50;22.42;;;1.20;48.30;;;;;;5052532;28;20267;-71
2021/01/02 04:57:14;;;;;;;24.48;21.83;;;1.20;48.60;;;;;;5052315;28;20177;-71
2021/01/02 04:59:40;;;;;;;34.33;23.10;;;1.20;49.00;;;;;;5052261;28;20230;-71
2021/01/02 05:02:07;;;;;;;25.08;20.73;;;1.20;48.80;;;;;;5052671;28;20254;-71
2021/01/02 05:04:33;;;;;;;33.22;20.00;;;1.10;48.70;;;;;;5053573;28;20267;-71
2021/01/02 05:06:59;;;;;;;26.50;20.97;;;1.10;48.90;;;;;;5052569;28;20179;-72
2021/01/02 05:09:24;;;;;;;25.63;22.83;;;1.10;49.40;;;;;;5034055;28;20177;-71
2021/01/02 05:11:50;;;;;;;28.33;23.37;;;1.10;49.00;;;;;;5052282;28;20222;-71
2021/01/02 05:14:15;;;;;;;26.60;21.77;;;1.10;49.00;;;;;;5051798;28;20168;-72
2021/01/02 05:16:42;;;;;;;31.67;22.50;;;1.10;48.80;;;;;;5051862;28;20188;-72
2021/01/02 05:19:13;;;;;;;28.17;21.50;;;1.10;49.70;;;;;;5050872;28;20181;-72
2021/01/02 05:21:46;;;;;;;26.05;23.27;;;1.10;49.50;;;;;;5051793;28;20212;-72
2021/01/02 05:24:19;;;;;;;25.33;22.65;;;1.10;49.30;;;;;;5051533;28;20250;-72
2021/01/02 05:26:47;;;;;;;26.50;23.48;;;1.10;49.40;;;;;;5051720;28;20176;-72
2021/01/02 05:29:17;;;;;;;29.63;23.65;;;1.10;49.40;;;;;;5051436;28;20254;-72
2021/01/02 05:31:51;;;;;;;31.77;21.50;;;1.10;49.20;;;;;;5033638;28;20861;-72
2021/01/02 05:34:20;;;;;;;29.00;21.52;;;1.10;49.40;;;;;;5051583;28;20209;-72
2021/01/02 05:36:46;;;;;;;27.48;21.50;;;1.10;49.20;;;;;;5051550;28;20605;-72
2021/01/02 05:39:16;;;;;;;24.30;20.10;;;1.10;49.30;;;;;;5051218;28;20173;-72
2021/01/02 05:41:52;;;;;;;22.48;19.77;;;1.10;48.50;;;;;;5051359;28;20196;-72
2021/01/02 05:44:20;;;;;;;24.67;21.92;;;1.10;48.70;;;;;;5051538;28;20206;-72
2021/01/02 05:46:47;;;;;;;26.40;19.40;;;1.10;48.70;;;;;;5051456;28;20264;-72
2021/01/02 05:49:36;;;;;;;26.67;20.73;;;1.10;48.90;;;;;;5050904;28;20184;-72
2021/01/02 05:52:11;;;;;;;21.77;19.33;;;1.10;49.00;;;;;;5051162;28;20189;-72
2021/01/02 05:54:49;;;;;;;23.30;19.80;;;1.10;48.60;;;;;;5051287;28;20176;-72
2021/01/02 05:57:25;;;;;;;21.83;19.52;;;1.00;48.40;;;;;;5051166;28;20646;-71
2021/01/02 05:59:56;;;;;;;20.80;18.33;;;1.00;48.70;;;;;;5050767;28;20189;-71
2021/01/02 06:02:30;;;;;;;29.65;21.40;;;1.00;48.70;;;;;;5033078;28;20615;-71
2021/01/02 06:05:04;;;;;;;26.15;22.50;;;1.00;48.50;;;;;;5051012;28;20192;-71
2021/01/02 06:07:32;;;;;;;22.58;19.98;;;0.90;48.70;;;;;;5051169;28;20243;-71
2021/01/02 06:09:58;;;;;;;25.50;21.08;;;0.90;48.80;;;;;;5050840;28;20174;-71
2021/01/02 06:12:33;;;;;;;24.17;20.38;;;0.80;49.10;;;;;;5050790;28;20213;-71
2021/01/02 06:15:00;;;;;;;25.95;21.02;;;0.80;49.60;;;;;;5050965;28;20195;-71
2021/01/02 06:17:32;;;;;;;25.90;23.17;;;0.80;49.90;;;;;;5033042;28;20689;-71
2021/01/02 06:20:09;;;;;;;24.35;21.75;;;0.70;50.00;;;;;;5050854;28;20185;-71
2021/01/02 06:22:38;;;;;;;26.67;21.05;;;0.80;50.20;;;;;;5051114;28;20201;-71
2021/01/02 06:25:05;;;;;;;25.90;21.38;;;0.80;49.60;;;;;;5051226;28;20206;-71
2021/01/02 06:27:32;;;;;;;19.92;17.80;;;0.80;49.60;;;;;;5033445;28;20180;-72
2021/01/02 06:29:59;;;;;;;24.38;19.15;;;0.80;49.20;;;;;;5034546;28;20273;-71
2021/01/02 06:32:26;;;;;;;24.48;20.13;;;0.80;49.60;;;;;;5053388;28;20198;-71
2021/01/02 06:35:10;;;;;;;23.00;16.58;;;0.80;48.90;;;;;;5036715;28;20664;-73
2021/01/02 06:37:48;;;;;;;20.58;18.35;;;0.80;49.00;;;;;;5054906;28;20196;-73
2021/01/02 06:40:33;;;;;;;25.92;20.98;;;0.70;49.30;;;;;;5054879;28;20178;-71
2021/01/02 06:43:03;;;;;;;19.63;17.67;;;0.80;49.50;;;;;;5055288;28;20196;-71
2021/01/02 06:45:43;;;;;;;29.25;20.35;;;0.80;49.60;;;;;;5053833;28;20238;-72
2021/01/02 06:48:17;;;;;;;20.98;16.85;;;0.80;49.20;;;;;;5054821;28;20203;-73
2021/01/02 06:50:51;;;;;;;27.90;21.30;;;0.80;48.80;;;;;;5054781;28;20703;-71
2021/01/02 06:53:22;;;;;;;17.92;15.98;;;0.90;48.40;;;;;;5054753;28;20198;-71
2021/01/02 06:56:07;;;;;;;19.77;17.35;;;0.90;48.70;;;;;;5054699;28;20206;-71
2021/01/02 06:58:44;;;;;;;20.67;17.60;;;0.90;48.40;;;;;;5054634;28;20182;-71
2021/01/02 07:01:16;;;;;;;18.80;16.02;;;1.00;48.20;;;;;;5054327;28;20650;-72
2021/01/02 07:03:48;;;;;;;22.00;17.20;;;1.00;47.80;;;;;;5054063;28;20257;-72
2021/01/02 07:06:20;;;;;;;21.08;16.55;;;1.00;47.40;;;;;;5054671;28;20255;-72
2021/01/02 07:08:59;;;;;;;29.20;18.42;;;0.90;47.60;;;;;;5055282;28;20167;-72
2021/01/02 07:11:29;;;;;;;17.63;15.68;;;0.80;47.90;;;;;;5058392;28;20227;-72
2021/01/02 07:16:55;;;;;;;18.83;16.83;;;0.70;48.40;;;;;;5060104;28;20204;-70
2021/01/02 07:19:33;;;;;;;21.80;17.73;;;0.70;48.50;;;;;;5060542;28;20629;-76
2021/01/02 07:22:00;;;;;;;21.05;15.93;;;0.70;48.60;;;;;;5065333;28;20332;-72
2021/01/02 07:24:28;;;;;;;19.65;17.65;;;0.70;48.70;;;;;;5067858;28;20202;-70
2021/01/02 07:27:02;;;;;;;21.13;18.52;;;0.70;48.60;;;;;;5059202;28;20187;-73
2021/01/02 07:29:29;;;;;;;20.30;15.68;;;0.70;48.70;;;;;;5059115;28;20178;-71
2021/01/02 07:32:06;;;;;;;16.55;14.93;;;0.70;48.70;;;;;;5067953;28;20203;-71
2021/01/02 07:34:32;;;;;;;21.08;17.73;;;0.70;49.20;;;;;;5075463;28;20654;-71
2021/01/02 07:37:21;;;;;;;20.43;17.17;;;0.70;49.10;;;;;;5075458;28;20200;-75
2021/01/02 07:40:22;;;;;;;17.15;15.13;;;0.70;49.40;;;;;;5085161;28;20195;-71
2021/01/02 07:42:50;;;;;;;20.05;17.90;;;0.90;48.80;;;;;;4989860;28;20296;-74
2021/01/02 07:45:22;;;;;;;18.80;16.42;;;0.80;48.30;;;;;;5054660;28;20193;-74
2021/01/02 07:47:49;;;;;;;21.50;16.42;;;0.80;48.40;;;;;;5074207;28;20179;-73
2021/01/02 07:50:18;;;;;;;25.30;19.27;;;0.80;48.60;;;;;;5056254;28;20189;-73
2021/01/02 07:52:51;;;;;;;25.50;18.10;;;0.80;48.60;;;;;;5069959;28;20207;-73
2021/01/02 07:55:22;;;;;;;20.50;16.92;;;0.80;48.80;;;;;;5066426;28;20202;-73
2021/01/02 07:57:48;;;;;;;20.52;18.23;;;0.80;48.80;;;;;;5062890;28;20210;-74
2021/01/02 08:00:14;;;;;;;18.03;16.43;;;0.70;49.10;;;;;;5059034;28;20258;-74
2021/01/02 08:02:40;;;;;;;21.73;16.83;;;0.70;49.20;;;;;;5047583;28;20200;-75
2021/01/02 08:05:15;;;;;;;25.27;18.40;;;0.70;49.40;;;;;;5054023;28;20616;-73
2021/01/02 08:07:50;;;;;;;21.15;18.95;;;0.70;49.50;;;;;;5053125;28;20166;-72
2021/01/02 08:10:16;;;;;;;22.63;17.23;;;0.70;49.50;;;;;;5053115;28;20165;-70
2021/01/02 08:12:49;;;;;;;22.83;20.40;;;0.70;49.50;;;;;;5052025;28;20220;-72
2021/01/02 08:15:24;;;;;;;23.90;16.95;;;0.70;50.10;;;;;;5053907;28;20577;-72
2021/01/02 08:17:50;;;;;;;21.67;19.35;;;0.70;49.50;;;;;;5054394;28;20164;-72
2021/01/02 08:20:15;;;;;;;23.17;19.63;;;0.70;49.50;;;;;;5064526;28;20186;-72
2021/01/02 08:22:41;;;;;;;21.87;17.53;;;0.70;49.90;;;;;;5055392;28;20228;-72
2021/01/02 08:25:15;;;;;;;21.47;19.37;;;0.70;50.00;;;;;;5058680;28;20727;-72
2021/01/02 08:27:42;;;;;;;22.52;19.45;;;0.70;50.00;;;;;;5074149;28;20795;-72
2021/01/02 08:30:12;;;;;;;22.30;18.83;;;0.70;50.20;;;;;;5055403;28;20215;-73
2021/01/02 08:32:45;;;;;;;23.05;20.23;;;0.70;50.30;;;;;;5055792;28;20207;-73
2021/01/02 08:35:26;;;;;;;20.70;18.40;;;0.80;49.70;;;;;;5073083;28;20611;-73
2021/01/02 08:37:52;;;;;;;20.90;16.45;;;0.80;49.90;;;;;;5063010;28;20182;-72
2021/01/02 08:40:18;;;;;;;30.70;17.40;;;0.80;48.80;;;;;;5056621;28;20256;-72
2021/01/02 08:42:46;;;;;;;19.17;17.27;;;0.70;48.70;;;;;;5074436;28;20436;-71
2021/01/02 08:45:26;;;;;;;27.42;17.58;;;0.70;48.90;;;;;;5069147;28;20219;-71
2021/01/02 08:48:07;;;;;;;19.83;17.75;;;0.70;48.60;;;;;;5077485;28;20182;-71
2021/01/02 08:50:33;;;;;;;22.35;18.63;;;0.80;48.60;;;;;;5061664;28;20182;-73
2021/01/02 08:52:59;;;;;;;23.50;17.65;;;0.80;48.50;;;;;;5041271;28;20212;-73
2021/01/02 08:55:29;;;;;;;24.67;18.80;;;0.80;48.40;;;;;;5053799;28;20181;-73
2021/01/02 08:57:55;;;;;;;20.35;18.15;;;0.70;48.60;;;;;;5063638;28;20177;-75
2021/01/02 09:00:23;;;;;;;26.95;17.05;;;0.80;48.60;;;;;;5072013;28;20523;-74
2021/01/02 09:03:06;;;;;;;26.05;18.23;;;0.80;48.30;;;;;;5044238;28;20205;-74
2021/01/02 09:05:37;;;;;;;26.00;17.40;;;0.80;48.50;;;;;;5061546;28;20188;-73
2021/01/02 09:08:05;;;;;;;20.48;18.38;;;0.90;48.70;;;;;;5060654;28;20170;-75
2021/01/02 09:10:32;;;;;;;22.63;18.70;;;;;;;;;;5062448;28;20566;-74
2021/01/02 09:13:01;;;;;;;23.23;17.10;;;;;;;;;;5062176;28;20232;-75
2021/01/02 09:15:45;;;;;;;28.58;17.70;;;;;;;;;;5073192;28;20190;-74
2021/01/02 09:18:12;;;;;;;21.00;17.25;;;;;;;;;;5062651;28;20173;-73
2021/01/02 09:20:38;;;;;;;20.08;17.90;;;;;;;;;;5044106;28;20176;-75
2021/01/02 09:23:04;;;;;;;22.55;17.42;;;;;;;;;;5059860;28;20252;-75
2021/01/02 09:25:31;;;;;;;17.92;16.13;;;;;;;;;;5041890;28;20175;-73
2021/01/02 09:28:16;;;;;;;24.08;17.63;;;;;;;;;;5042425;28;20177;-69
2021/01/02 09:30:45;;;;;;;25.52;19.02;;;1.30;44.50;;;;;;5057323;28;20246;-74
2021/01/02 09:33:11;;;;;;;24.08;16.17;;;1.30;45.10;;;;;;5055907;28;20205;-74
2021/01/02 09:35:38;;;;;;;22.13;16.92;;;1.30;45.10;;;;;;5038580;28;20185;-71
2021/01/02 09:38:04;;;;;;;28.35;18.35;;;1.40;45.20;;;;;;5057904;28;20186;-73
2021/01/02 09:40:31;;;;;;;15.55;13.50;;;1.50;44.90;;;;;;5039347;28;20583;-73
2021/01/02 09:42:57;;;;;;;18.60;15.70;;;1.50;44.20;;;;;;5061997;28;20228;-71
2021/01/02 09:45:22;;;;;;;15.10;13.30;;;1.60;44.10;;;;;;5062055;28;20178;-73
2021/01/02 09:47:48;;;;;;;21.00;17.07;;;1.70;43.50;;;;;;5055547;28;20240;-74
2021/01/02 09:50:13;;;;;;;18.67;16.30;;;1.70;43.80;;;;;;5055227;28;20177;-73
2021/01/02 09:52:42;;;;;;;19.90;15.10;;;1.70;43.90;;;;;;5055259;28;20606;-72
2021/01/02 09:55:08;;;;;;;18.23;16.08;;;1.70;43.50;;;;;;5038742;28;20182;-73
2021/01/02 09:57:34;;;;;;;18.55;13.02;;;1.80;43.40;;;;;;5056574;28;20231;-73
2021/01/02 09:59:59;;;;;;;16.00;13.43;;;1.80;42.60;;;;;;5079587;28;20178;-74
2021/01/02 10:02:29;;;;;;;16.33;14.67;;;1.80;42.30;;;;;;5067527;28;20193;-71
2021/01/02 10:04:55;;;;;;;16.80;13.40;;;1.90;42.60;;;;;;5073681;28;20206;-73
2021/01/02 10:07:20;;;;;;;20.03;14.27;;;1.80;43.00;;;;;;5056554;28;20531;-75
2021/01/02 10:09:47;;;;;;;17.30;14.37;;;1.80;42.30;;;;;;5055855;28;20170;-73
2021/01/02 10:12:14;;;;;;;15.80;14.18;;;1.90;42.70;;;;;;5038981;28;20247;-73
2021/01/02 10:14:41;;;;;;;15.52;12.98;;;2.00;42.10;;;;;;5060128;28;20186;-72
2021/01/02 10:17:07;;;;;;;15.63;14.02;;;2.00;40.70;;;;;;5058968;28;20174;-73
2021/01/02 10:19:33;;;;;;;16.27;12.82;;;2.10;40.80;;;;;;5058806;28;20178;-74
2021/01/02 10:22:03;;;;;;;18.43;14.37;;;2.10;40.50;;;;;;5063689;28;20205;-72
2021/01/02 10:24:30;;;;;;;18.45;14.25;;;2.00;40.70;;;;;;5059150;28;20457;-73
2021/01/02 10:26:56;;;;;;;13.68;11.90;;;2.00;40.70;;;;;;5047886;28;20181;-73
2021/01/02 10:29:22;;;;;;;18.20;14.32;;;2.00;40.00;;;;;;5056077;28;20278;-71
2021/01/02 10:31:48;;;;;;;17.10;12.80;;;2.00;40.30;;;;;;5079388;28;20271;-71
2021/01/02 10:34:15;;;;;;;16.88;15.02;;;2.00;40.20;;;;;;5060309;28;20181;-72
2021/01/02 10:36:44;;;;;;;16.88;12.90;;;2.00;40.70;;;;;;5076918;28;20794;-74
2021/01/02 10:39:09;;;;;;;13.73;11.57;;;1.90;39.90;;;;;;5059894;28;20555;-72
2021/01/02 10:41:35;;;;;;;15.87;12.70;;;1.90;39.80;;;;;;5048815;28;20229;-70
2021/01/02 10:44:00;;;;;;;16.60;12.20;;;1.90;39.70;;;;;;5067024;28;20213;-73
2021/01/02 10:46:26;;;;;;;15.37;13.97;;;1.90;39.50;;;;;;5073812;28;20171;-74
2021/01/02 10:48:51;;;;;;;20.70;13.80;;;1.90;39.40;;;;;;5056690;28;20174;-74
2021/01/02 10:51:21;;;;;;;13.67;12.13;;;2.00;39.20;;;;;;5071271;28;20185;-72
2021/01/02 10:53:47;;;;;;;13.93;12.43;;;2.00;38.80;;;;;;5077601;28;20655;-73
2021/01/02 10:56:18;;;;;;;17.52;13.93;;;2.00;38.50;;;;;;5075535;28;20179;-74
2021/01/02 10:58:44;;;;;;;19.20;14.63;;;2.10;38.80;;;;;;5070745;28;20206;-73
2021/01/02 11:01:11;;;;;;;13.75;12.45;;;2.10;38.00;;;;;;5043573;28;20187;-74
2021/01/02 11:03:37;;;;;;;13.63;11.90;;;2.10;37.80;;;;;;5059089;28;20771;-71
2021/01/02 11:06:07;;;;;;;14.48;12.95;;;2.10;37.90;;;;;;5051459;28;20178;-73
2021/01/02 11:08:37;;;;;;;14.35;12.20;;;2.20;37.70;;;;;;5058681;28;20182;-74
2021/01/02 11:11:04;;;;;;;12.00;10.85;;;2.20;37.60;;;;;;5060573;28;20181;-72
2021/01/02 11:13:30;;;;;;;13.38;11.95;;;2.10;37.10;;;;;;5036970;22;20641;-71
2021/01/02 11:15:56;;;;;;;14.50;13.00;;;2.10;37.40;;;;;;4998638;28;20185;-72
2021/01/02 11:18:22;;;;;;;13.83;12.10;;;2.20;36.90;;;;;;5005169;28;20409;-72
2021/01/02 11:20:48;;;;;;;16.47;14.70;;;2.30;36.20;;;;;;5017634;28;20185;-71
2021/01/02 11:23:17;;;;;;;15.23;13.77;;;2.40;36.60;;;;;;5013374;28;20224;-70
2021/01/02 11:25:43;;;;;;;16.17;13.27;;;2.50;36.00;;;;;;5005845;28;20438;-71
2021/01/02 11:28:09;;;;;;;19.90;14.17;;;2.40;36.20;;;;;;4995091;28;20177;-71
2021/01/02 11:30:34;;;;;;;17.80;15.57;;;2.40;36.30;;;;;;4993919;28;20911;-71
2021/01/02 11:33:00;;;;;;;16.20;12.90;;;2.50;36.50;;;;;;4992789;28;20295;-71
2021/01/02 11:35:26;;;;;;;15.67;13.00;;;2.60;36.80;;;;;;4986167;28;20181;-72
2021/01/02 11:37:51;;;;;;;15.80;13.27;;;2.70;36.10;;;;;;4975138;28;20211;-71
2021/01/02 11:40:18;;;;;;;21.03;13.43;;;2.80;35.80;;;;;;4971588;28;20189;-72
2021/01/02 11:42:44;;;;;;;14.50;12.48;;;2.70;35.90;;;;;;4973356;28;20668;-71
2021/01/02 11:45:15;;;;;;;20.77;15.30;;;2.50;36.00;;;;;;4973852;28;20284;-71
2021/01/02 11:47:41;;;;;;;16.58;14.90;;;2.60;36.20;;;;;;4974244;28;20193;-71
2021/01/02 11:50:07;;;;;;;14.00;12.70;;;2.50;36.00;;;;;;4985952;28;20184;-71
2021/01/02 11:52:32;;;;;;;17.23;14.37;;;2.40;36.50;;;;;;4992499;28;20224;-71
2021/01/02 11:54:58;;;;;;;17.33;15.07;;;2.40;36.80;;;;;;4992526;28;21012;-71
2021/01/02 11:57:23;;;;;;;16.80;13.43;;;2.50;37.50;;;;;;4993060;28;20181;-71
2021/01/02 11:59:49;;;;;;;20.43;14.50;;;2.50;36.80;;;;;;4993587;28;20649;-71
2021/01/02 12:02:14;;;;;;;14.77;13.20;;;2.30;36.60;;;;;;4990636;28;20228;-72
2021/01/02 12:04:43;;;;;;;15.90;13.50;;;2.30;36.90;;;;;;4976324;28;20262;-71
2021/01/02 12:07:08;;;;;;;19.95;14.02;;;2.20;37.30;;;;;;4974115;28;20173;-71
2021/01/02 12:09:34;;;;;;;14.37;12.97;;;2.30;37.00;;;;;;4970990;28;20182;-71
2021/01/02 12:11:59;;;;;;;21.90;15.30;;;2.40;36.40;;;;;;4961469;28;20213;-72
2021/01/02 12:14:27;;;;;;;17.53;15.83;;;2.50;36.60;;;;;;4954415;28;20671;-71
2021/01/02 12:16:55;;;;;;;18.95;14.50;;;2.50;37.00;;;;;;4985099;28;20211;-72
2021/01/02 12:19:26;;;;;;;15.38;13.70;;;2.60;36.40;;;;;;4992770;28;20260;-71
2021/01/02 12:21:56;;;;;;;14.57;13.20;;;2.60;36.10;;;;;;4992603;28;20220;-71
2021/01/02 12:24:25;;;;;;;12.48;11.27;;;2.70;36.20;;;;;;4993416;28;20291;-72
2021/01/02 12:27:00;;;;;;;18.17;13.93;;;2.70;36.20;;;;;;4992877;28;20697;-74
2021/01/02 12:29:33;;;;;;;14.88;12.95;;;2.60;36.20;;;;;;4993636;28;20362;-74
2021/01/02 12:32:03;;;;;;;18.52;14.40;;;2.40;35.90;;;;;;4954622;28;20292;-70
2021/01/02 12:34:30;;;;;;;14.68;13.20;;;2.40;36.80;;;;;;4953541;28;20197;-71
2021/01/02 12:36:58;;;;;;;14.73;13.32;;;2.60;36.10;;;;;;4966963;28;20284;-70
2021/01/02 12:39:28;;;;;;;17.48;14.15;;;2.50;36.30;;;;;;4972007;28;20545;-70
2021/01/02 12:41:55;;;;;;;16.40;12.77;;;2.50;36.00;;;;;;4982961;28;20204;-71
2021/01/02 12:44:21;;;;;;;15.73;12.75;;;2.60;36.20;;;;;;4988535;28;20204;-71
2021/01/02 12:46:49;;;;;;;17.92;15.07;;;2.50;36.10;;;;;;4988917;28;20181;-69
2021/01/02 12:49:18;;;;;;;14.38;13.00;;;2.40;35.90;;;;;;4990327;28;20218;-70
2021/01/02 12:51:44;;;;;;;14.73;12.57;;;2.40;36.10;;;;;;4990003;28;20185;-70
2021/01/02 12:54:10;;;;;;;15.07;13.57;;;2.30;36.30;;;;;;4990264;28;20199;-71
2021/01/02 12:56:43;;;;;;;16.13;14.50;;;2.20;37.00;;;;;;4989606;28;20181;-70
2021/01/02 12:59:08;;;;;;;24.52;15.18;;;2.20;37.20;;;;;;4988462;28;20702;-71